Create Custom Reports and Graphics: Custom Report

Belmont 8000'

Squaw Valley

8/31/26 9:15 PM (-07:00)
Updated Every 15 Minutes
Temp 51.3 °F   5.5
RH 60 %   22
Dew Pt 38.1 °F   6.5
Wet Bulb 44.2 °F   0.3
Wind Dir SSE | 155 °
Wind Spd 17.8 mph   7.9
Wind Gust 29.4 mph   15.1
WindChill 46.2 °F   10.4
Daily Min Temp 51.3 °F   2.3
Daily Max Temp 67.6 °F   1.1
Latest Rain 0.00 In
Daily Rain 0.00 In

Last 24 Hours

OV-Belmont 8000'

Hourly Data | America/Los_Angeles
as of 8/31/26 9:18 PM PDT
Date & Time Temp (°F) RH (%) Dew Pt (°F) Wet Bulb (°F) Wind Dir (°) Wind Spd (mph) Wind Gust (mph) WindChill (°F) Latest Rain (In) Daily Min Temp (°F) Daily Max Temp (°F) Daily Rain (In)
8/31/26 - 2100 51.8 59 37.8 44.3 S | 169 12.8 27.7 48.1 0.00 51.6 67.6 0.00
8/31/26 - 2000 52.9 56 37.5 44.6 S | 173 9.8 21.3 51.5 0.00 51.8 67.6 0.00
8/31/26 - 1900 53.9 55 38.4 45.4 SSW | 199 9.6 28.3 55.7 0.00 51.8 67.6 0.00
8/31/26 - 1800 58.3 48 39.0 47.6 SSW | 202 12.8 22.7 59.5 0.00 51.8 67.6 0.00
8/31/26 - 1700 59.7 46 39.0 48.1 SSW | 207 13.4 26.6 61.3 0.00 51.8 67.6 0.00
8/31/26 - 1600 64.0 40 39.2 49.9 SSW | 200 12.8 22.9 63.6 0.00 51.8 67.6 0.00
8/31/26 - 1500 63.7 37 36.7 48.8 SSW | 212 12.6 22.3 64.1 0.00 51.8 67.6 0.00
8/31/26 - 1400 64.5 32 34.2 48.2 SSW | 207 10.2 18.4 64.3 0.00 51.8 67.6 0.00
8/31/26 - 1300 63.8 33 34.5 47.9 SSW | 200 9.2 20.3 63.7 0.00 51.8 65.8 0.00
8/31/26 - 1200 63.6 31 32.1 47.0 SSW | 198 11.2 20.7 63.0 0.00 51.8 64.4 0.00
8/31/26 - 1100 63.6 31 32.5 47.1 SSW | 197 9.4 15.8 62.0 0.00 51.8 64.4 0.00
8/31/26 - 1000 59.8 31 29.2 44.5 S | 186 11.9 18.8 58.7 0.00 51.8 60.3 0.00
8/31/26 - 0900 57.1 32 27.3 42.6 S | 184 13.2 18.9 56.3 0.00 51.8 57.5 0.00
8/31/26 - 0800 55.4 34 27.2 41.8 S | 182 11.7 17.0 54.5 0.00 51.8 57.5 0.00
8/31/26 - 0700 53.6 37 27.9 41.2 S | 189 11.5 15.5 49.2 0.00 51.8 57.5 0.00
8/31/26 - 0600 52.7 39 28.6 41.0 S | 190 9.9 15.4 52.1 0.00 51.8 57.5 0.00
8/31/26 - 0500 54.7 35 27.5 41.6 SSW | 194 7.2 12.2 52.1 0.00 51.8 57.5 0.00
8/31/26 - 0400 53.2 42 30.5 41.8 SSW | 202 5.7 10.6 53.7 0.00 52.9 57.5 0.00
8/31/26 - 0300 54.1 32 25.0 40.4 SSW | 199 4.3 8.5 54.6 0.00 53.7 57.5 0.00
8/31/26 - 0200 56.3 30 25.5 41.6 S | 183 4.8 9.9 56.6 0.00 54.1 57.5 0.00
8/31/26 - 0100 55.8 28 22.9 40.6 SSW | 203 3.2 7.7 55.0 0.00 54.1 56.2 0.00
8/31/26 - 0000 55.1 31 25.3 41.0 S | 177 3.0 6.3 55.1 0.00 49.0 68.6 0.00
8/30/26 - 2300 56.2 36 30.0 43.0 S | 179 8.4 15.9 57.3 0.00 49.0 68.6 0.00
8/30/26 - 2200 58.2 24 22.0 41.5 S | 182 11.2 16.4 57.2 0.00 49.0 68.6 0.00
8/30/26 - 2100 56.7 39 32.0 44.0 SSW | 213 6.8 11.7 55.0 0.00 49.0 68.6 0.00
Max 64.5 59 39.2 49.9 - 13.4 28.3 64.3 0.00 54.1 68.6 0.00
Avg 57.5 38 31.3 44.2 - 9.5 17.3 57.0 0.00 - - -
Min 51.8 24 22.0 40.4 - 3.0 6.3 48.1 0.00 49.0 56.2 0.00
Total - - - - - - - - 0.00 - - -

Last 30 Days

OV-Belmont 8000'

Daily Data | America/Los_Angeles
as of 8/31/26 9:18 PM PDT
Date Daily Max Temp (°F) Time of Max Temp Daily Min Temp (°F) Time of Min Temp Daily Rain (In) Season Precip (In) Wind Spd (mph) Daily Max Wind (mph) Time of Max Wind Max Wind Dir (°) Daily Max RH (%) Daily Min RH (%) Wet Bulb (°F) WetB Hrs <28F (hrs) MinBV Day (V)
8/30/26 68.6 1530 49.0 0351 0.00 102.80 8.6 24.1 0858 SSW | 204 54 21 43.4 0.0 13.1
8/29/26 63.4 1511 48.3 0641 0.00 102.80 9.9 29.4 1106 SE | 142 92 32 46.2 0.0 12.7
8/28/26 56.2 0149 48.4 1047 0.11 102.80 8.6 18.6 2204 S | 174 98 43 47.9 0.0 13.2
8/27/26 71.3 1303 55.4 2357 0.00 102.70 9.4 27.0 0208 SW | 231 55 23 46.5 0.0 13.0
8/26/26 72.4 1510 58.2 0359 0.00 102.70 10.5 34.9 1358 SW | 226 64 28 50.4 0.0 13.0
8/25/26 71.2 1651 55.6 0348 0.00 102.70 9.2 31.0 0927 SSW | 203 51 33 49.0 0.0 13.0
8/24/26 73.5 1351 57.4 2302 0.00 102.70 9.4 30.3 1405 WSW | 245 53 34 49.9 0.0 13.0
8/23/26 72.6 1337 57.4 0236 0.00 102.70 10.6 27.1 1409 NNW | 329 57 29 49.7 0.0 12.6
8/22/26 70.8 1242 57.6 0704 0.00 102.70 8.5 30.2 1426 SSW | 202 51 32 48.6 0.0 12.6
8/21/26 74.4 1241 59.4 2333 0.00 102.70 11.8 26.1 1956 WSW | 240 49 26 49.3 0.0 13.0
8/20/26 75.3 1424 60.1 2030 0.00 102.70 11.3 28.3 1457 W | 280 41 20 47.9 0.0 13.0
8/19/26 77.0 1346 57.9 0626 0.00 102.70 6.7 22.9 2247 SSW | 213 45 21 49.6 0.0 13.0
8/18/26 74.9 1709 57.0 0130 0.00 102.70 6.7 20.0 1320 SW | 231 48 21 48.4 0.0 13.0
8/17/26 70.9 1147 55.6 0557 0.00 102.70 9.4 33.8 1533 SSW | 196 54 32 48.4 0.0 13.0
8/16/26 72.0 1442 53.7 0051 0.00 102.70 8.9 23.5 0442 SSE | 168 52 25 46.2 0.0 13.0
8/15/26 65.5 1623 50.6 0703 0.00 102.70 12.3 29.8 0216 NNE | 20 71 31 45.3 0.0 13.1
8/14/26 64.0 1525 49.5 0341 0.00 102.70 11.5 27.8 0516 SSW | 207 79 46 47.6 0.0 13.1
8/13/26 63.0 1254 52.0 2356 0.00 102.70 12.0 33.0 1508 WSW | 242 76 55 49.9 0.0 13.1
8/12/26 69.3 1640 57.4 2359 0.00 102.70 11.3 30.6 1231 SW | 227 64 19 48.9 0.0 13.0
8/11/26 77.2 1513 61.3 2211 0.00 102.70 11.9 25.0 0303 SSE | 151 35 16 47.7 0.0 13.0
8/10/26 77.7 1154 63.4 2106 0.00 102.70 10.4 26.5 1400 SW | 234 42 19 49.9 0.0 13.0
8/9/26 83.4 1450 65.7 2111 0.00 102.70 5.9 19.9 1522 NW | 309 36 16 50.6 0.0 13.0
8/8/26 85.3 1608 66.8 2357 0.00 102.70 5.3 17.7 1845 WNW | 289 40 21 53.2 0.0 13.0
8/7/26 87.8 1633 66.5 0124 0.00 102.70 5.9 19.9 1447 NNW | 348 39 17 52.6 0.0 13.0
8/6/26 80.2 1523 64.3 0359 0.00 102.70 9.7 22.6 1424 WSW | 251 33 15 50.2 0.0 13.0
8/5/26 80.7 1653 58.9 0609 0.00 102.70 8.0 19.1 1515 SW | 225 43 11 47.9 0.0 13.0
8/4/26 80.5 1446 58.7 0448 0.00 102.70 5.0 18.3 1805 W | 259 39 11 48.4 0.0 13.0
8/3/26 81.3 1608 55.3 0610 0.00 102.70 3.7 17.3 1937 WNW | 293 41 13 47.7 0.0 13.0
8/2/26 78.2 1438 57.2 2359 0.00 102.70 6.7 19.5 1502 WSW | 253 42 13 47.0 0.0 13.0
8/1/26 80.7 1652 61.6 0501 0.00 102.70 7.6 20.1 1508 WSW | 253 34 9 47.0 0.0 13.0
Max 87.8 - 66.8 - 0.11 102.80 12.3 34.9 - - 98 55 53.2 0.0 13.2
Avg - - - - - - 8.9 - - - - - 48.5 - -
Min 56.2 - 48.3 - 0.00 102.70 3.7 17.3 - - 33 9 43.4 0.0 12.6
Calm: 0.0%
Calm: 0.0%